sensor_id;sensor_type;location;lat;lon;timestamp;temperature;humidity
67799;SHT30;54596;43.216;27.904;2024-03-17T00:01:45;5.60;93.43
67799;SHT30;54596;43.216;27.904;2024-03-17T00:04:11;5.48;93.40
67799;SHT30;54596;43.216;27.904;2024-03-17T00:06:36;5.42;93.55
67799;SHT30;54596;43.216;27.904;2024-03-17T00:09:02;5.43;93.56
67799;SHT30;54596;43.216;27.904;2024-03-17T00:11:32;5.42;93.68
67799;SHT30;54596;43.216;27.904;2024-03-17T00:13:58;5.37;93.78
67799;SHT30;54596;43.216;27.904;2024-03-17T00:16:24;5.39;93.86
67799;SHT30;54596;43.216;27.904;2024-03-17T00:18:49;5.39;93.96
67799;SHT30;54596;43.216;27.904;2024-03-17T00:21:15;5.37;93.90
67799;SHT30;54596;43.216;27.904;2024-03-17T00:23:40;5.33;93.88
67799;SHT30;54596;43.216;27.904;2024-03-17T00:26:07;5.33;93.94
67799;SHT30;54596;43.216;27.904;2024-03-17T00:28:32;5.29;94.02
67799;SHT30;54596;43.216;27.904;2024-03-17T00:30:58;5.29;94.04
67799;SHT30;54596;43.216;27.904;2024-03-17T00:33:23;5.30;94.12
67799;SHT30;54596;43.216;27.904;2024-03-17T00:35:50;5.30;94.06
67799;SHT30;54596;43.216;27.904;2024-03-17T00:38:15;5.32;94.07
67799;SHT30;54596;43.216;27.904;2024-03-17T00:40:41;5.30;93.94
67799;SHT30;54596;43.216;27.904;2024-03-17T00:43:07;5.25;93.91
67799;SHT30;54596;43.216;27.904;2024-03-17T00:45:33;5.29;93.80
67799;SHT30;54596;43.216;27.904;2024-03-17T00:47:58;5.27;93.78
67799;SHT30;54596;43.216;27.904;2024-03-17T00:50:24;5.27;93.76
67799;SHT30;54596;43.216;27.904;2024-03-17T00:52:50;5.29;93.73
67799;SHT30;54596;43.216;27.904;2024-03-17T00:55:15;5.25;93.75
67799;SHT30;54596;43.216;27.904;2024-03-17T00:57:41;5.22;93.68
67799;SHT30;54596;43.216;27.904;2024-03-17T01:00:07;5.23;93.67
67799;SHT30;54596;43.216;27.904;2024-03-17T01:02:37;5.20;93.63
67799;SHT30;54596;43.216;27.904;2024-03-17T01:05:03;5.25;93.63
67799;SHT30;54596;43.216;27.904;2024-03-17T01:07:31;5.23;93.64
67799;SHT30;54596;43.216;27.904;2024-03-17T01:09:57;5.20;93.47
67799;SHT30;54596;43.216;27.904;2024-03-17T01:12:22;5.19;93.38
67799;SHT30;54596;43.216;27.904;2024-03-17T01:14:48;5.13;93.41
67799;SHT30;54596;43.216;27.904;2024-03-17T01:17:13;5.09;93.42
67799;SHT30;54596;43.216;27.904;2024-03-17T01:19:39;5.08;93.54
67799;SHT30;54596;43.216;27.904;2024-03-17T01:22:05;5.05;93.53
67799;SHT30;54596;43.216;27.904;2024-03-17T01:24:30;5.05;93.55
67799;SHT30;54596;43.216;27.904;2024-03-17T01:26:59;5.05;93.56
67799;SHT30;54596;43.216;27.904;2024-03-17T01:29:26;5.04;93.52
67799;SHT30;54596;43.216;27.904;2024-03-17T01:31:52;5.02;93.52
67799;SHT30;54596;43.216;27.904;2024-03-17T01:34:20;5.01;93.46
67799;SHT30;54596;43.216;27.904;2024-03-17T01:36:45;5.04;93.46
67799;SHT30;54596;43.216;27.904;2024-03-17T01:39:11;5.01;93.45
67799;SHT30;54596;43.216;27.904;2024-03-17T01:41:37;4.99;93.39
67799;SHT30;54596;43.216;27.904;2024-03-17T01:44:03;5.01;93.33
67799;SHT30;54596;43.216;27.904;2024-03-17T01:46:29;4.96;93.31
67799;SHT30;54596;43.216;27.904;2024-03-17T01:48:54;4.98;93.14
67799;SHT30;54596;43.216;27.904;2024-03-17T01:51:21;4.99;93.11
67799;SHT30;54596;43.216;27.904;2024-03-17T01:53:48;4.96;93.04
67799;SHT30;54596;43.216;27.904;2024-03-17T01:56:16;4.85;92.95
67799;SHT30;54596;43.216;27.904;2024-03-17T01:58:44;4.91;92.99
67799;SHT30;54596;43.216;27.904;2024-03-17T02:01:13;4.91;92.98
67799;SHT30;54596;43.216;27.904;2024-03-17T02:03:41;4.89;93.06
67799;SHT30;54596;43.216;27.904;2024-03-17T02:06:10;4.87;93.09
67799;SHT30;54596;43.216;27.904;2024-03-17T02:08:52;4.91;93.09
67799;SHT30;54596;43.216;27.904;2024-03-17T02:11:32;4.87;93.05
67799;SHT30;54596;43.216;27.904;2024-03-17T02:13:59;4.85;92.95
67799;SHT30;54596;43.216;27.904;2024-03-17T02:16:26;4.83;92.85
67799;SHT30;54596;43.216;27.904;2024-03-17T02:18:55;4.80;92.83
67799;SHT30;54596;43.216;27.904;2024-03-17T02:21:22;4.78;92.92
67799;SHT30;54596;43.216;27.904;2024-03-17T02:23:53;4.77;92.97
67799;SHT30;54596;43.216;27.904;2024-03-17T02:26:19;4.74;92.95
67799;SHT30;54596;43.216;27.904;2024-03-17T02:28:46;4.68;92.87
67799;SHT30;54596;43.216;27.904;2024-03-17T02:31:13;4.71;92.88
67799;SHT30;54596;43.216;27.904;2024-03-17T02:33:39;4.71;92.99
67799;SHT30;54596;43.216;27.904;2024-03-17T02:36:06;4.73;93.09
67799;SHT30;54596;43.216;27.904;2024-03-17T02:38:35;4.73;93.12
67799;SHT30;54596;43.216;27.904;2024-03-17T02:41:20;4.71;93.08
67799;SHT30;54596;43.216;27.904;2024-03-17T02:43:46;4.74;93.09
67799;SHT30;54596;43.216;27.904;2024-03-17T02:46:13;4.71;93.07
67799;SHT30;54596;43.216;27.904;2024-03-17T02:48:42;4.73;93.06
67799;SHT30;54596;43.216;27.904;2024-03-17T02:51:16;4.73;93.08
67799;SHT30;54596;43.216;27.904;2024-03-17T02:53:42;4.74;93.12
67799;SHT30;54596;43.216;27.904;2024-03-17T02:56:09;4.73;93.12
67799;SHT30;54596;43.216;27.904;2024-03-17T02:58:35;4.73;93.08
67799;SHT30;54596;43.216;27.904;2024-03-17T03:01:02;4.70;93.09
67799;SHT30;54596;43.216;27.904;2024-03-17T03:03:32;4.67;93.09
67799;SHT30;54596;43.216;27.904;2024-03-17T03:05:57;4.67;93.15
67799;SHT30;54596;43.216;27.904;2024-03-17T03:08:24;4.64;93.13
67799;SHT30;54596;43.216;27.904;2024-03-17T03:10:49;4.61;93.24
67799;SHT30;54596;43.216;27.904;2024-03-17T03:13:15;4.56;93.36
67799;SHT30;54596;43.216;27.904;2024-03-17T03:15:41;4.52;93.36
67799;SHT30;54596;43.216;27.904;2024-03-17T03:18:07;4.50;93.37
67799;SHT30;54596;43.216;27.904;2024-03-17T03:20:33;4.46;93.44
67799;SHT30;54596;43.216;27.904;2024-03-17T03:22:59;4.42;93.44
67799;SHT30;54596;43.216;27.904;2024-03-17T03:25:25;4.38;93.56
67799;SHT30;54596;43.216;27.904;2024-03-17T03:27:52;4.32;93.55
67799;SHT30;54596;43.216;27.904;2024-03-17T03:30:18;4.25;93.61
67799;SHT30;54596;43.216;27.904;2024-03-17T03:32:46;4.23;93.67
67799;SHT30;54596;43.216;27.904;2024-03-17T03:35:13;4.21;93.72
67799;SHT30;54596;43.216;27.904;2024-03-17T03:37:40;4.19;93.82
67799;SHT30;54596;43.216;27.904;2024-03-17T03:40:07;4.18;93.81
67799;SHT30;54596;43.216;27.904;2024-03-17T03:42:45;4.22;93.81
67799;SHT30;54596;43.216;27.904;2024-03-17T03:45:11;4.15;93.72
67799;SHT30;54596;43.216;27.904;2024-03-17T03:47:42;4.12;93.62
67799;SHT30;54596;43.216;27.904;2024-03-17T03:50:14;4.08;93.66
67799;SHT30;54596;43.216;27.904;2024-03-17T03:52:39;4.05;93.76
67799;SHT30;54596;43.216;27.904;2024-03-17T03:55:07;4.02;93.69
67799;SHT30;54596;43.216;27.904;2024-03-17T03:57:36;4.01;93.72
67799;SHT30;54596;43.216;27.904;2024-03-17T04:00:03;3.97;93.73
67799;SHT30;54596;43.216;27.904;2024-03-17T04:02:41;3.99;93.73
67799;SHT30;54596;43.216;27.904;2024-03-17T04:05:07;3.97;93.76
67799;SHT30;54596;43.216;27.904;2024-03-17T04:07:33;3.95;93.78
67799;SHT30;54596;43.216;27.904;2024-03-17T04:10:00;3.91;93.75
67799;SHT30;54596;43.216;27.904;2024-03-17T04:12:26;3.87;93.74
67799;SHT30;54596;43.216;27.904;2024-03-17T04:14:53;3.86;93.84
67799;SHT30;54596;43.216;27.904;2024-03-17T04:17:22;3.84;93.90
67799;SHT30;54596;43.216;27.904;2024-03-17T04:19:51;3.81;93.94
67799;SHT30;54596;43.216;27.904;2024-03-17T04:22:18;3.81;93.97
67799;SHT30;54596;43.216;27.904;2024-03-17T04:24:44;3.84;94.00
67799;SHT30;54596;43.216;27.904;2024-03-17T04:27:10;3.86;93.99
67799;SHT30;54596;43.216;27.904;2024-03-17T04:29:36;3.88;93.98
67799;SHT30;54596;43.216;27.904;2024-03-17T04:32:02;3.90;94.03
67799;SHT30;54596;43.216;27.904;2024-03-17T04:34:30;3.95;94.06
67799;SHT30;54596;43.216;27.904;2024-03-17T04:36:56;3.98;94.04
67799;SHT30;54596;43.216;27.904;2024-03-17T04:39:23;3.99;93.93
67799;SHT30;54596;43.216;27.904;2024-03-17T04:41:48;4.01;93.83
67799;SHT30;54596;43.216;27.904;2024-03-17T04:44:15;4.02;93.70
67799;SHT30;54596;43.216;27.904;2024-03-17T04:46:41;4.06;93.61
67799;SHT30;54596;43.216;27.904;2024-03-17T04:49:07;4.05;93.46
67799;SHT30;54596;43.216;27.904;2024-03-17T04:51:33;4.08;93.31
67799;SHT30;54596;43.216;27.904;2024-03-17T04:54:00;4.09;93.16
67799;SHT30;54596;43.216;27.904;2024-03-17T04:56:26;4.13;92.89
67799;SHT30;54596;43.216;27.904;2024-03-17T04:58:51;4.15;92.88
67799;SHT30;54596;43.216;27.904;2024-03-17T05:01:17;4.25;92.89
67799;SHT30;54596;43.216;27.904;2024-03-17T05:03:42;4.29;92.77
67799;SHT30;54596;43.216;27.904;2024-03-17T05:06:08;4.39;92.74
67799;SHT30;54596;43.216;27.904;2024-03-17T05:08:34;4.49;92.55
67799;SHT30;54596;43.216;27.904;2024-03-17T05:11:04;4.56;92.29
67799;SHT30;54596;43.216;27.904;2024-03-17T05:13:31;4.64;92.08
67799;SHT30;54596;43.216;27.904;2024-03-17T05:15:57;4.68;91.90
67799;SHT30;54596;43.216;27.904;2024-03-17T05:18:23;4.66;91.56
67799;SHT30;54596;43.216;27.904;2024-03-17T05:21:00;4.71;91.53
67799;SHT30;54596;43.216;27.904;2024-03-17T05:23:27;4.75;91.46
67799;SHT30;54596;43.216;27.904;2024-03-17T05:25:54;4.81;91.45
67799;SHT30;54596;43.216;27.904;2024-03-17T05:28:20;4.83;91.66
67799;SHT30;54596;43.216;27.904;2024-03-17T05:30:46;4.94;91.62
67799;SHT30;54596;43.216;27.904;2024-03-17T05:33:13;5.04;91.71
67799;SHT30;54596;43.216;27.904;2024-03-17T05:35:38;5.13;91.69
67799;SHT30;54596;43.216;27.904;2024-03-17T05:38:04;5.22;91.57
67799;SHT30;54596;43.216;27.904;2024-03-17T05:40:30;5.26;91.31
67799;SHT30;54596;43.216;27.904;2024-03-17T05:42:56;5.32;90.98
67799;SHT30;54596;43.216;27.904;2024-03-17T05:45:22;5.35;90.65
67799;SHT30;54596;43.216;27.904;2024-03-17T05:47:49;5.43;90.61
67799;SHT30;54596;43.216;27.904;2024-03-17T05:50:15;5.48;90.64
67799;SHT30;54596;43.216;27.904;2024-03-17T05:52:41;5.51;90.52
67799;SHT30;54596;43.216;27.904;2024-03-17T05:55:07;5.53;90.58
67799;SHT30;54596;43.216;27.904;2024-03-17T05:57:33;5.58;90.75
67799;SHT30;54596;43.216;27.904;2024-03-17T05:59:59;5.68;90.59
67799;SHT30;54596;43.216;27.904;2024-03-17T06:02:25;5.70;90.61
67799;SHT30;54596;43.216;27.904;2024-03-17T06:04:50;5.77;90.53
67799;SHT30;54596;43.216;27.904;2024-03-17T06:07:16;5.85;90.56
67799;SHT30;54596;43.216;27.904;2024-03-17T06:09:41;5.92;90.49
67799;SHT30;54596;43.216;27.904;2024-03-17T06:12:07;5.98;90.55
67799;SHT30;54596;43.216;27.904;2024-03-17T06:14:33;6.08;90.56
67799;SHT30;54596;43.216;27.904;2024-03-17T06:16:59;6.17;90.50
67799;SHT30;54596;43.216;27.904;2024-03-17T06:19:25;6.23;90.67
67799;SHT30;54596;43.216;27.904;2024-03-17T06:21:51;6.30;90.51
67799;SHT30;54596;43.216;27.904;2024-03-17T06:24:16;6.37;90.59
67799;SHT30;54596;43.216;27.904;2024-03-17T06:26:42;6.52;90.79
67799;SHT30;54596;43.216;27.904;2024-03-17T06:29:08;6.65;90.81
67799;SHT30;54596;43.216;27.904;2024-03-17T06:31:33;6.72;90.69
67799;SHT30;54596;43.216;27.904;2024-03-17T06:33:59;6.84;90.51
67799;SHT30;54596;43.216;27.904;2024-03-17T06:36:24;6.96;90.68
67799;SHT30;54596;43.216;27.904;2024-03-17T06:38:50;7.12;91.00
67799;SHT30;54596;43.216;27.904;2024-03-17T06:41:16;7.24;91.35
67799;SHT30;54596;43.216;27.904;2024-03-17T06:43:42;7.44;91.82
67799;SHT30;54596;43.216;27.904;2024-03-17T06:46:08;7.66;92.38
67799;SHT30;54596;43.216;27.904;2024-03-17T06:48:34;7.82;92.42
67799;SHT30;54596;43.216;27.904;2024-03-17T06:50:59;8.02;92.34
67799;SHT30;54596;43.216;27.904;2024-03-17T06:53:25;8.23;92.06
67799;SHT30;54596;43.216;27.904;2024-03-17T06:55:59;8.52;91.65
67799;SHT30;54596;43.216;27.904;2024-03-17T06:58:26;8.79;91.38
67799;SHT30;54596;43.216;27.904;2024-03-17T07:00:57;9.03;91.06
67799;SHT30;54596;43.216;27.904;2024-03-17T07:03:24;9.28;90.81
67799;SHT30;54596;43.216;27.904;2024-03-17T07:05:52;9.56;90.07
67799;SHT30;54596;43.216;27.904;2024-03-17T07:08:18;9.63;89.57
67799;SHT30;54596;43.216;27.904;2024-03-17T07:10:55;9.72;89.42
67799;SHT30;54596;43.216;27.904;2024-03-17T07:13:21;10.13;88.74
67799;SHT30;54596;43.216;27.904;2024-03-17T07:15:47;10.49;87.49
67799;SHT30;54596;43.216;27.904;2024-03-17T07:18:13;10.55;87.17
67799;SHT30;54596;43.216;27.904;2024-03-17T07:20:38;10.72;86.65
67799;SHT30;54596;43.216;27.904;2024-03-17T07:23:04;10.76;86.22
67799;SHT30;54596;43.216;27.904;2024-03-17T07:25:30;10.67;85.84
67799;SHT30;54596;43.216;27.904;2024-03-17T07:27:56;10.92;86.22
67799;SHT30;54596;43.216;27.904;2024-03-17T07:30:21;11.08;85.85
67799;SHT30;54596;43.216;27.904;2024-03-17T07:32:47;11.10;85.83
67799;SHT30;54596;43.216;27.904;2024-03-17T07:35:12;12.11;84.33
67799;SHT30;54596;43.216;27.904;2024-03-17T07:37:39;12.73;82.60
67799;SHT30;54596;43.216;27.904;2024-03-17T07:40:05;12.84;81.10
67799;SHT30;54596;43.216;27.904;2024-03-17T07:42:36;12.75;81.50
67799;SHT30;54596;43.216;27.904;2024-03-17T07:45:02;14.07;79.01
67799;SHT30;54596;43.216;27.904;2024-03-17T07:47:28;15.24;75.65
67799;SHT30;54596;43.216;27.904;2024-03-17T07:50:02;15.50;73.68
67799;SHT30;54596;43.216;27.904;2024-03-17T07:52:31;15.70;73.62
67799;SHT30;54596;43.216;27.904;2024-03-17T07:54:57;16.71;71.21
67799;SHT30;54596;43.216;27.904;2024-03-17T07:57:23;17.60;68.88
67799;SHT30;54596;43.216;27.904;2024-03-17T07:59:52;17.30;68.58
67799;SHT30;54596;43.216;27.904;2024-03-17T08:02:17;18.44;66.77
67799;SHT30;54596;43.216;27.904;2024-03-17T08:04:43;19.33;63.94
67799;SHT30;54596;43.216;27.904;2024-03-17T08:07:10;19.91;62.79
67799;SHT30;54596;43.216;27.904;2024-03-17T08:09:36;19.93;61.58
67799;SHT30;54596;43.216;27.904;2024-03-17T08:12:02;20.33;60.93
67799;SHT30;54596;43.216;27.904;2024-03-17T08:14:34;20.51;60.45
67799;SHT30;54596;43.216;27.904;2024-03-17T08:16:59;21.20;59.00
67799;SHT30;54596;43.216;27.904;2024-03-17T08:19:26;21.46;58.65
67799;SHT30;54596;43.216;27.904;2024-03-17T08:21:53;21.58;57.58
67799;SHT30;54596;43.216;27.904;2024-03-17T08:24:19;20.91;59.04
67799;SHT30;54596;43.216;27.904;2024-03-17T08:26:45;21.40;58.27
67799;SHT30;54596;43.216;27.904;2024-03-17T08:29:11;20.39;59.76
67799;SHT30;54596;43.216;27.904;2024-03-17T08:31:37;21.41;58.07
67799;SHT30;54596;43.216;27.904;2024-03-17T08:34:03;20.89;58.61
67799;SHT30;54596;43.216;27.904;2024-03-17T08:36:29;20.98;58.64
67799;SHT30;54596;43.216;27.904;2024-03-17T08:38:54;19.77;59.60
67799;SHT30;54596;43.216;27.904;2024-03-17T08:41:20;19.26;60.17
67799;SHT30;54596;43.216;27.904;2024-03-17T08:43:46;18.36;62.47
67799;SHT30;54596;43.216;27.904;2024-03-17T08:46:12;18.26;63.69
67799;SHT30;54596;43.216;27.904;2024-03-17T08:48:40;17.18;66.55
67799;SHT30;54596;43.216;27.904;2024-03-17T08:51:07;16.64;67.02
67799;SHT30;54596;43.216;27.904;2024-03-17T08:53:33;16.75;67.52
67799;SHT30;54596;43.216;27.904;2024-03-17T08:55:59;16.55;67.78
67799;SHT30;54596;43.216;27.904;2024-03-17T08:58:25;15.74;69.56
67799;SHT30;54596;43.216;27.904;2024-03-17T09:00:51;15.28;70.55
67799;SHT30;54596;43.216;27.904;2024-03-17T09:03:17;15.02;71.05
67799;SHT30;54596;43.216;27.904;2024-03-17T09:05:45;14.40;73.39
67799;SHT30;54596;43.216;27.904;2024-03-17T09:08:18;14.36;73.36
67799;SHT30;54596;43.216;27.904;2024-03-17T09:10:48;13.31;75.08
67799;SHT30;54596;43.216;27.904;2024-03-17T09:13:17;12.93;77.41
67799;SHT30;54596;43.216;27.904;2024-03-17T09:15:57;13.04;77.52
67799;SHT30;54596;43.216;27.904;2024-03-17T09:18:23;13.15;77.52
67799;SHT30;54596;43.216;27.904;2024-03-17T09:21:00;13.18;77.56
67799;SHT30;54596;43.216;27.904;2024-03-17T09:23:26;13.05;78.01
67799;SHT30;54596;43.216;27.904;2024-03-17T09:28:22;12.29;79.96
67799;SHT30;54596;43.216;27.904;2024-03-17T09:30:48;12.20;80.38
67799;SHT30;54596;43.216;27.904;2024-03-17T09:33:16;12.22;80.82
67799;SHT30;54596;43.216;27.904;2024-03-17T09:35:42;12.26;80.95
67799;SHT30;54596;43.216;27.904;2024-03-17T09:38:08;12.42;80.47
67799;SHT30;54596;43.216;27.904;2024-03-17T09:40:33;12.35;80.56
67799;SHT30;54596;43.216;27.904;2024-03-17T09:42:59;11.77;82.13
67799;SHT30;54596;43.216;27.904;2024-03-17T09:45:26;11.87;81.96
67799;SHT30;54596;43.216;27.904;2024-03-17T09:47:54;11.81;82.07
67799;SHT30;54596;43.216;27.904;2024-03-17T09:50:19;11.52;82.83
67799;SHT30;54596;43.216;27.904;2024-03-17T09:52:45;11.38;83.02
67799;SHT30;54596;43.216;27.904;2024-03-17T09:55:17;11.39;83.55
67799;SHT30;54596;43.216;27.904;2024-03-17T09:57:43;11.42;83.26
67799;SHT30;54596;43.216;27.904;2024-03-17T10:00:11;11.42;83.06
67799;SHT30;54596;43.216;27.904;2024-03-17T10:02:47;11.46;83.12
67799;SHT30;54596;43.216;27.904;2024-03-17T10:05:21;11.39;83.36
67799;SHT30;54596;43.216;27.904;2024-03-17T10:07:47;11.32;83.56
67799;SHT30;54596;43.216;27.904;2024-03-17T10:10:17;11.20;84.02
67799;SHT30;54596;43.216;27.904;2024-03-17T10:12:43;11.12;84.15
67799;SHT30;54596;43.216;27.904;2024-03-17T10:15:12;11.07;84.48
67799;SHT30;54596;43.216;27.904;2024-03-17T10:17:38;10.99;85.21
67799;SHT30;54596;43.216;27.904;2024-03-17T10:20:24;10.84;85.86
67799;SHT30;54596;43.216;27.904;2024-03-17T10:22:57;10.89;85.99
67799;SHT30;54596;43.216;27.904;2024-03-17T10:25:29;10.83;86.14
67799;SHT30;54596;43.216;27.904;2024-03-17T10:27:56;10.56;86.94
67799;SHT30;54596;43.216;27.904;2024-03-17T10:30:25;10.63;87.15
67799;SHT30;54596;43.216;27.904;2024-03-17T10:32:58;10.73;87.10
67799;SHT30;54596;43.216;27.904;2024-03-17T10:35:35;10.86;86.98
67799;SHT30;54596;43.216;27.904;2024-03-17T10:38:05;10.86;86.92
67799;SHT30;54596;43.216;27.904;2024-03-17T10:40:31;10.84;87.13
67799;SHT30;54596;43.216;27.904;2024-03-17T10:43:00;11.01;86.85
67799;SHT30;54596;43.216;27.904;2024-03-17T10:45:26;10.93;87.00
67799;SHT30;54596;43.216;27.904;2024-03-17T10:47:56;10.72;87.45
67799;SHT30;54596;43.216;27.904;2024-03-17T10:50:27;10.73;87.37
67799;SHT30;54596;43.216;27.904;2024-03-17T10:53:01;10.60;87.94
67799;SHT30;54596;43.216;27.904;2024-03-17T10:55:32;10.66;87.85
67799;SHT30;54596;43.216;27.904;2024-03-17T10:57:59;10.46;87.80
67799;SHT30;54596;43.216;27.904;2024-03-17T11:00:26;10.53;87.52
67799;SHT30;54596;43.216;27.904;2024-03-17T11:02:55;10.60;87.30
67799;SHT30;54596;43.216;27.904;2024-03-17T11:07:53;10.55;88.01
67799;SHT30;54596;43.216;27.904;2024-03-17T11:10:31;10.38;88.01
67799;SHT30;54596;43.216;27.904;2024-03-17T11:12:58;10.46;87.53
67799;SHT30;54596;43.216;27.904;2024-03-17T11:17:55;10.50;87.27
67799;SHT30;54596;43.216;27.904;2024-03-17T11:20:29;10.39;86.85
67799;SHT30;54596;43.216;27.904;2024-03-17T11:22:57;10.31;86.09
67799;SHT30;54596;43.216;27.904;2024-03-17T11:27:58;10.35;86.09
67799;SHT30;54596;43.216;27.904;2024-03-17T11:38:54;10.27;86.32
67799;SHT30;54596;43.216;27.904;2024-03-17T11:41:36;10.31;86.19
67799;SHT30;54596;43.216;27.904;2024-03-17T11:44:36;10.38;85.73
67799;SHT30;54596;43.216;27.904;2024-03-17T11:47:04;10.35;85.91
67799;SHT30;54596;43.216;27.904;2024-03-17T11:49:34;10.45;86.16
67799;SHT30;54596;43.216;27.904;2024-03-17T11:52:09;10.49;85.71
67799;SHT30;54596;43.216;27.904;2024-03-17T11:54:40;10.49;85.99
67799;SHT30;54596;43.216;27.904;2024-03-17T11:57:11;10.52;86.19
67799;SHT30;54596;43.216;27.904;2024-03-17T11:59:41;10.60;86.39
67799;SHT30;54596;43.216;27.904;2024-03-17T12:02:20;10.60;86.14
67799;SHT30;54596;43.216;27.904;2024-03-17T12:04:46;10.63;86.46
67799;SHT30;54596;43.216;27.904;2024-03-17T12:07:14;10.60;86.49
67799;SHT30;54596;43.216;27.904;2024-03-17T12:09:44;10.67;86.57
67799;SHT30;54596;43.216;27.904;2024-03-17T12:12:39;10.66;86.16
67799;SHT30;54596;43.216;27.904;2024-03-17T12:15:19;10.65;86.22
67799;SHT30;54596;43.216;27.904;2024-03-17T12:17:45;10.58;86.19
67799;SHT30;54596;43.216;27.904;2024-03-17T12:20:18;10.39;86.12
67799;SHT30;54596;43.216;27.904;2024-03-17T12:22:45;10.39;86.80
67799;SHT30;54596;43.216;27.904;2024-03-17T12:25:17;10.45;87.17
67799;SHT30;54596;43.216;27.904;2024-03-17T12:27:44;10.50;86.75
67799;SHT30;54596;43.216;27.904;2024-03-17T12:30:15;10.50;87.19
67799;SHT30;54596;43.216;27.904;2024-03-17T12:32:41;10.52;87.08
67799;SHT30;54596;43.216;27.904;2024-03-17T12:35:16;10.44;86.63
67799;SHT30;54596;43.216;27.904;2024-03-17T12:37:46;10.25;87.27
67799;SHT30;54596;43.216;27.904;2024-03-17T12:40:19;10.37;87.77
67799;SHT30;54596;43.216;27.904;2024-03-17T12:42:49;10.30;88.33
67799;SHT30;54596;43.216;27.904;2024-03-17T12:45:19;10.32;88.39
67799;SHT30;54596;43.216;27.904;2024-03-17T12:47:47;10.38;87.82
67799;SHT30;54596;43.216;27.904;2024-03-17T12:50:13;10.39;88.39
67799;SHT30;54596;43.216;27.904;2024-03-17T12:52:40;10.32;88.33
67799;SHT30;54596;43.216;27.904;2024-03-17T12:55:07;10.41;88.29
67799;SHT30;54596;43.216;27.904;2024-03-17T12:58:04;10.38;88.28
67799;SHT30;54596;43.216;27.904;2024-03-17T13:00:59;10.18;88.57
67799;SHT30;54596;43.216;27.904;2024-03-17T13:03:28;10.31;88.96
67799;SHT30;54596;43.216;27.904;2024-03-17T13:05:54;10.32;88.88
67799;SHT30;54596;43.216;27.904;2024-03-17T13:08:20;10.28;89.01
67799;SHT30;54596;43.216;27.904;2024-03-17T13:10:46;10.28;89.18
67799;SHT30;54596;43.216;27.904;2024-03-17T13:13:12;10.25;89.27
67799;SHT30;54596;43.216;27.904;2024-03-17T13:15:41;10.10;89.41
67799;SHT30;54596;43.216;27.904;2024-03-17T13:18:07;10.10;89.03
67799;SHT30;54596;43.216;27.904;2024-03-17T13:20:34;10.06;89.53
67799;SHT30;54596;43.216;27.904;2024-03-17T13:23:00;9.97;89.90
67799;SHT30;54596;43.216;27.904;2024-03-17T13:25:28;10.00;90.08
67799;SHT30;54596;43.216;27.904;2024-03-17T13:28:04;9.89;90.41
67799;SHT30;54596;43.216;27.904;2024-03-17T13:30:32;9.93;90.53
67799;SHT30;54596;43.216;27.904;2024-03-17T13:32:59;9.93;90.62
67799;SHT30;54596;43.216;27.904;2024-03-17T13:35:26;9.90;90.61
67799;SHT30;54596;43.216;27.904;2024-03-17T13:37:53;9.86;90.78
67799;SHT30;54596;43.216;27.904;2024-03-17T13:40:23;9.80;91.09
67799;SHT30;54596;43.216;27.904;2024-03-17T13:42:50;9.80;91.25
67799;SHT30;54596;43.216;27.904;2024-03-17T13:45:17;9.75;91.53
67799;SHT30;54596;43.216;27.904;2024-03-17T13:47:47;9.75;91.78
67799;SHT30;54596;43.216;27.904;2024-03-17T13:50:14;9.72;91.83
67799;SHT30;54596;43.216;27.904;2024-03-17T13:52:40;9.70;91.64
67799;SHT30;54596;43.216;27.904;2024-03-17T13:55:11;9.75;91.66
67799;SHT30;54596;43.216;27.904;2024-03-17T13:57:38;9.83;91.67
67799;SHT30;54596;43.216;27.904;2024-03-17T14:00:04;9.76;91.72
67799;SHT30;54596;43.216;27.904;2024-03-17T14:02:33;9.86;91.82
67799;SHT30;54596;43.216;27.904;2024-03-17T14:04:58;9.93;91.71
67799;SHT30;54596;43.216;27.904;2024-03-17T14:07:24;9.98;91.52
67799;SHT30;54596;43.216;27.904;2024-03-17T14:09:50;9.98;91.35
67799;SHT30;54596;43.216;27.904;2024-03-17T14:12:16;9.96;91.36
67799;SHT30;54596;43.216;27.904;2024-03-17T14:14:42;9.97;91.58
67799;SHT30;54596;43.216;27.904;2024-03-17T14:17:09;10.01;91.51
67799;SHT30;54596;43.216;27.904;2024-03-17T14:19:34;9.97;91.42
67799;SHT30;54596;43.216;27.904;2024-03-17T14:22:00;10.00;91.68
67799;SHT30;54596;43.216;27.904;2024-03-17T14:24:26;9.94;91.60
67799;SHT30;54596;43.216;27.904;2024-03-17T14:26:56;10.03;91.82
67799;SHT30;54596;43.216;27.904;2024-03-17T14:29:22;9.98;91.41
67799;SHT30;54596;43.216;27.904;2024-03-17T14:31:47;9.97;91.42
67799;SHT30;54596;43.216;27.904;2024-03-17T14:34:13;9.97;91.45
67799;SHT30;54596;43.216;27.904;2024-03-17T14:36:39;9.98;91.35
67799;SHT30;54596;43.216;27.904;2024-03-17T14:39:04;9.96;91.37
67799;SHT30;54596;43.216;27.904;2024-03-17T14:41:33;9.96;91.57
67799;SHT30;54596;43.216;27.904;2024-03-17T14:43:59;9.83;91.79
67799;SHT30;54596;43.216;27.904;2024-03-17T14:46:26;9.80;91.85
67799;SHT30;54596;43.216;27.904;2024-03-17T14:48:53;9.73;92.16
67799;SHT30;54596;43.216;27.904;2024-03-17T14:51:19;9.76;92.20
67799;SHT30;54596;43.216;27.904;2024-03-17T14:53:47;9.68;92.33
67799;SHT30;54596;43.216;27.904;2024-03-17T14:56:19;9.69;92.31
67799;SHT30;54596;43.216;27.904;2024-03-17T14:58:45;9.70;92.40
67799;SHT30;54596;43.216;27.904;2024-03-17T15:01:13;9.75;92.34
67799;SHT30;54596;43.216;27.904;2024-03-17T15:03:39;9.76;92.28
67799;SHT30;54596;43.216;27.904;2024-03-17T15:06:52;9.73;92.45
67799;SHT30;54596;43.216;27.904;2024-03-17T15:09:17;9.73;92.52
67799;SHT30;54596;43.216;27.904;2024-03-17T15:11:45;9.61;92.70
67799;SHT30;54596;43.216;27.904;2024-03-17T15:14:11;9.65;92.63
67799;SHT30;54596;43.216;27.904;2024-03-17T15:16:38;9.59;92.49
67799;SHT30;54596;43.216;27.904;2024-03-17T15:19:22;9.53;92.59
67799;SHT30;54596;43.216;27.904;2024-03-17T15:21:47;9.55;92.66
67799;SHT30;54596;43.216;27.904;2024-03-17T15:24:14;9.53;92.72
67799;SHT30;54596;43.216;27.904;2024-03-17T15:26:39;9.52;92.76
67799;SHT30;54596;43.216;27.904;2024-03-17T15:29:05;9.51;92.86
67799;SHT30;54596;43.216;27.904;2024-03-17T15:31:34;9.48;93.03
67799;SHT30;54596;43.216;27.904;2024-03-17T15:33:59;9.49;93.01
67799;SHT30;54596;43.216;27.904;2024-03-17T15:36:31;9.45;93.07
67799;SHT30;54596;43.216;27.904;2024-03-17T15:38:56;9.41;92.98
67799;SHT30;54596;43.216;27.904;2024-03-17T15:41:22;9.34;93.26
67799;SHT30;54596;43.216;27.904;2024-03-17T15:43:48;9.36;93.21
67799;SHT30;54596;43.216;27.904;2024-03-17T15:46:18;9.32;93.28
67799;SHT30;54596;43.216;27.904;2024-03-17T15:48:45;9.30;93.28